Time;durP1;ratioP1;P1;durP2;ratioP2;P2;SDS_P1;SDS_P2;PMS_P1;PMS_P2;Temp;Humidity;BMP_temperature;BMP_pressure;BME280_temperature;BME280_humidity;BME280_pressure;Samples;Min_cycle;Max_cycle;Signal;HPM_P1;HPM_P2
2022/03/10 00:02:09;;;;;;;14.23;7.65;;;9.80;71.90;;;;;;4946237;28;20066;-70
2022/03/10 00:04:38;;;;;;;13.68;7.25;;;9.70;71.60;;;;;;4941715;28;20043;-70
2022/03/10 00:07:04;;;;;;;15.55;7.45;;;9.70;71.70;;;;;;4934768;28;20039;-70
2022/03/10 00:09:34;;;;;;;19.15;8.00;;;9.70;71.60;;;;;;4951012;28;20034;-70
2022/03/10 00:12:00;;;;;;;17.70;7.85;;;9.70;71.60;;;;;;4938221;28;20027;-70
2022/03/10 00:14:26;;;;;;;15.80;8.23;;;9.60;71.90;;;;;;4950109;28;20089;-71
2022/03/10 00:16:52;;;;;;;17.73;8.77;;;9.60;71.90;;;;;;4950743;28;20035;-70
2022/03/10 00:19:18;;;;;;;13.27;7.93;;;9.50;71.80;;;;;;4939295;28;20038;-70
2022/03/10 00:21:45;;;;;;;19.05;8.30;;;9.50;71.80;;;;;;4960828;28;20583;-70
2022/03/10 00:24:11;;;;;;;21.67;8.48;;;9.40;71.80;;;;;;4938445;28;20040;-70
2022/03/10 00:26:37;;;;;;;16.48;8.10;;;9.40;71.70;;;;;;4950156;28;20054;-70
2022/03/10 00:29:03;;;;;;;18.85;8.63;;;9.40;71.70;;;;;;4956511;28;20502;-70
2022/03/10 00:31:29;;;;;;;17.63;8.25;;;9.30;71.50;;;;;;4943368;28;20378;-70
2022/03/10 00:33:55;;;;;;;18.10;9.07;;;9.30;71.40;;;;;;4942958;28;20118;-70
2022/03/10 00:36:20;;;;;;;17.50;8.57;;;9.30;71.50;;;;;;4937805;28;20069;-70
2022/03/10 00:38:46;;;;;;;21.73;8.57;;;9.20;71.60;;;;;;4937746;28;20036;-70
2022/03/10 00:41:12;;;;;;;20.50;8.93;;;9.20;71.70;;;;;;4949833;28;20046;-71
2022/03/10 00:43:37;;;;;;;21.33;8.68;;;9.20;71.80;;;;;;4936118;28;20070;-70
2022/03/10 00:46:03;;;;;;;19.50;9.05;;;9.20;71.90;;;;;;4932794;28;20055;-70
2022/03/10 00:48:29;;;;;;;19.17;9.40;;;9.10;71.80;;;;;;4941620;28;20035;-70
2022/03/10 00:50:54;;;;;;;20.88;9.27;;;9.10;71.50;;;;;;4943777;28;20040;-70
2022/03/10 00:53:20;;;;;;;21.13;9.15;;;9.10;71.70;;;;;;4944235;28;20066;-70
2022/03/10 00:55:46;;;;;;;20.60;9.93;;;9.10;71.90;;;;;;4945345;28;20034;-70
2022/03/10 00:58:12;;;;;;;18.67;9.70;;;9.10;72.00;;;;;;4940497;28;20064;-70
2022/03/10 01:00:38;;;;;;;21.90;10.18;;;9.00;71.50;;;;;;4934473;28;20031;-70
2022/03/10 01:03:05;;;;;;;21.65;9.77;;;9.00;71.10;;;;;;4949866;28;20073;-70
2022/03/10 01:05:31;;;;;;;18.55;9.55;;;8.90;71.20;;;;;;4950089;28;20121;-70
2022/03/10 01:07:57;;;;;;;16.35;8.82;;;9.00;71.50;;;;;;4950442;28;20043;-70
2022/03/10 01:10:22;;;;;;;16.52;8.43;;;8.90;72.00;;;;;;4948406;28;20026;-70
2022/03/10 01:12:50;;;;;;;17.42;7.38;;;8.90;72.10;;;;;;4939810;28;20162;-70
2022/03/10 01:15:20;;;;;;;16.88;8.57;;;8.80;72.60;;;;;;4947653;28;20122;-70
2022/03/10 01:17:47;;;;;;;19.52;7.75;;;8.80;73.00;;;;;;4949787;29;20027;-70
2022/03/10 01:20:13;;;;;;;19.70;7.78;;;8.70;73.80;;;;;;4947971;28;20062;-70
2022/03/10 01:22:40;;;;;;;13.60;7.15;;;8.80;74.40;;;;;;4941258;28;20024;-70
2022/03/10 01:25:07;;;;;;;15.27;8.75;;;8.80;74.60;;;;;;4948445;28;20028;-68
2022/03/10 01:27:35;;;;;;;17.30;9.27;;;8.70;74.60;;;;;;4961497;28;20039;-72
2022/03/10 01:30:01;;;;;;;17.05;7.47;;;8.60;73.90;;;;;;4960195;28;20518;-70
2022/03/10 01:32:27;;;;;;;14.77;7.68;;;8.60;74.10;;;;;;4948565;28;20047;-69
2022/03/10 01:34:53;;;;;;;18.38;8.07;;;8.60;73.90;;;;;;4969604;28;20032;-69
2022/03/10 01:37:20;;;;;;;13.52;8.00;;;8.50;73.60;;;;;;5005124;28;20096;-70
2022/03/10 01:39:46;;;;;;;15.13;7.50;;;8.50;73.90;;;;;;4987653;28;20033;-70
2022/03/10 01:42:12;;;;;;;15.40;8.18;;;8.40;74.00;;;;;;4986306;28;20540;-70
2022/03/10 01:44:38;;;;;;;14.57;7.97;;;8.40;74.50;;;;;;4933248;28;20028;-69
2022/03/10 01:47:05;;;;;;;22.10;7.95;;;8.40;74.80;;;;;;4945113;29;20402;-70
2022/03/10 01:49:32;;;;;;;15.10;7.85;;;8.30;74.70;;;;;;4935185;28;20128;-69
2022/03/10 01:51:59;;;;;;;16.75;8.18;;;8.30;74.90;;;;;;4944235;29;20040;-69
2022/03/10 01:54:25;;;;;;;13.38;7.43;;;8.30;75.20;;;;;;4951761;28;20031;-69
2022/03/10 01:56:51;;;;;;;14.57;7.45;;;8.20;75.00;;;;;;4953010;28;20051;-69
2022/03/10 01:59:18;;;;;;;15.02;7.90;;;8.20;74.90;;;;;;4955367;28;20031;-69
2022/03/10 02:01:44;;;;;;;16.63;8.82;;;8.20;74.40;;;;;;4952393;28;20035;-69
2022/03/10 02:04:09;;;;;;;15.50;8.48;;;8.10;74.00;;;;;;4948356;28;20119;-69
2022/03/10 02:06:38;;;;;;;17.75;8.80;;;8.10;73.80;;;;;;4950967;28;20039;-69
2022/03/10 02:11:51;;;;;;;16.33;6.35;;;8.00;73.80;;;;;;4946787;28;20085;-69
2022/03/10 02:19:45;;;;;;;15.10;8.27;;;7.90;74.80;;;;;;4941650;28;20027;-69
2022/03/10 02:22:13;;;;;;;16.30;7.93;;;7.80;74.90;;;;;;4957979;28;20062;-70
2022/03/10 02:24:43;;;;;;;17.80;8.73;;;7.80;74.80;;;;;;4933487;28;20032;-70
2022/03/10 02:27:27;;;;;;;17.23;8.52;;;7.80;74.40;;;;;;4945412;28;20047;-70
2022/03/10 02:29:58;;;;;;;17.92;8.95;;;7.80;74.30;;;;;;4933299;28;20024;-70
2022/03/10 02:32:23;;;;;;;16.85;9.15;;;7.70;74.00;;;;;;4982051;28;20097;-70
2022/03/10 02:34:49;;;;;;;14.48;8.05;;;7.70;73.80;;;;;;4967796;28;20452;-70
2022/03/10 02:37:16;;;;;;;18.10;8.25;;;7.60;73.60;;;;;;5002382;28;20389;-70
2022/03/10 02:39:44;;;;;;;14.90;8.45;;;7.60;73.60;;;;;;4985165;28;20026;-69
2022/03/10 02:42:13;;;;;;;17.42;8.43;;;7.60;73.60;;;;;;5020684;28;20032;-70
2022/03/10 02:44:45;;;;;;;16.60;8.93;;;7.50;73.40;;;;;;4976353;28;20028;-70
2022/03/10 02:47:11;;;;;;;14.70;7.93;;;7.50;73.30;;;;;;4997957;28;20044;-70
2022/03/10 02:49:39;;;;;;;17.50;8.75;;;7.50;73.50;;;;;;4955366;28;20028;-70
2022/03/10 02:52:09;;;;;;;16.50;8.40;;;7.40;73.60;;;;;;4933055;28;20039;-70
2022/03/10 02:54:34;;;;;;;15.35;8.07;;;7.40;73.50;;;;;;4948820;29;20471;-69
2022/03/10 02:57:00;;;;;;;18.17;9.40;;;7.40;73.60;;;;;;4940854;28;20087;-69
2022/03/10 02:59:26;;;;;;;19.73;9.00;;;7.30;73.60;;;;;;4948393;28;20063;-70
2022/03/10 03:01:52;;;;;;;21.65;9.38;;;7.30;73.60;;;;;;4951530;29;20054;-70
2022/03/10 03:04:18;;;;;;;17.70;8.95;;;7.30;73.60;;;;;;4951823;28;20591;-70
2022/03/10 03:06:43;;;;;;;18.27;8.30;;;7.30;73.60;;;;;;4941460;28;20055;-69
2022/03/10 03:09:10;;;;;;;14.93;8.57;;;7.30;73.70;;;;;;4956176;28;20035;-70
2022/03/10 03:11:35;;;;;;;15.05;8.60;;;7.20;74.00;;;;;;4938795;28;20089;-69
2022/03/10 03:14:01;;;;;;;16.15;8.73;;;7.20;74.10;;;;;;4951840;28;20035;-70
2022/03/10 03:16:27;;;;;;;14.20;8.38;;;7.20;74.00;;;;;;4950060;28;20101;-70
2022/03/10 03:18:53;;;;;;;18.88;8.88;;;7.20;73.90;;;;;;4939955;28;20364;-70
2022/03/10 03:21:20;;;;;;;15.77;8.77;;;7.10;73.70;;;;;;4937665;28;20055;-69
2022/03/10 03:23:46;;;;;;;15.23;9.15;;;7.10;73.60;;;;;;4938992;28;20039;-69
2022/03/10 03:26:11;;;;;;;19.50;8.98;;;7.10;73.50;;;;;;4936678;28;20048;-70
2022/03/10 03:28:37;;;;;;;24.77;8.48;;;7.10;73.40;;;;;;4953031;28;20040;-69
2022/03/10 03:31:03;;;;;;;13.05;7.25;;;7.00;73.50;;;;;;4936117;28;20042;-70
2022/03/10 03:33:30;;;;;;;22.75;7.28;;;7.10;73.90;;;;;;4940598;28;20383;-70
2022/03/10 03:35:56;;;;;;;17.45;7.68;;;7.10;74.10;;;;;;4950110;28;20081;-70
2022/03/10 03:38:22;;;;;;;15.85;8.10;;;7.00;74.60;;;;;;4941148;28;20027;-70
2022/03/10 03:40:48;;;;;;;17.70;8.40;;;7.00;74.70;;;;;;4941762;28;20032;-70
2022/03/10 03:43:14;;;;;;;15.90;7.70;;;7.00;75.70;;;;;;4951231;28;20433;-70
2022/03/10 03:45:40;;;;;;;16.52;7.07;;;7.00;75.20;;;;;;4949152;28;20046;-69
2022/03/10 03:48:06;;;;;;;17.83;7.78;;;7.00;75.40;;;;;;4950822;28;20070;-70
2022/03/10 03:50:31;;;;;;;17.00;8.57;;;7.00;75.50;;;;;;4952587;28;20038;-69
2022/03/10 03:52:57;;;;;;;17.02;8.88;;;7.00;75.50;;;;;;4952498;28;20035;-69
2022/03/10 03:55:23;;;;;;;18.98;7.85;;;7.00;75.30;;;;;;4951097;28;20089;-69
2022/03/10 03:57:48;;;;;;;19.63;8.32;;;7.00;75.30;;;;;;4943256;28;20051;-69
2022/03/10 04:00:18;;;;;;;13.85;7.00;;;6.90;75.10;;;;;;4944161;28;20375;-69
2022/03/10 04:02:45;;;;;;;17.33;8.68;;;7.00;75.30;;;;;;4951121;28;20513;-69
2022/03/10 04:05:11;;;;;;;19.98;8.55;;;6.90;75.10;;;;;;4941264;28;20054;-69
2022/03/10 04:07:37;;;;;;;14.23;7.50;;;6.90;75.00;;;;;;4945105;28;20466;-69
2022/03/10 04:10:04;;;;;;;15.45;8.07;;;6.90;75.00;;;;;;4935260;28;20032;-69
2022/03/10 04:12:30;;;;;;;17.33;8.88;;;6.90;75.10;;;;;;4932017;28;20031;-69
2022/03/10 04:14:56;;;;;;;17.00;8.55;;;6.90;74.90;;;;;;4945992;28;20050;-69
2022/03/10 04:17:24;;;;;;;14.50;8.05;;;6.90;74.60;;;;;;4950336;28;20621;-69
2022/03/10 04:19:50;;;;;;;15.80;8.63;;;6.80;75.10;;;;;;4949294;28;20075;-70
2022/03/10 04:22:16;;;;;;;22.88;9.38;;;6.80;74.60;;;;;;4950661;28;20058;-69
2022/03/10 04:24:44;;;;;;;19.52;9.23;;;6.80;74.50;;;;;;4951180;28;20035;-69
2022/03/10 04:27:10;;;;;;;21.27;8.68;;;6.80;74.20;;;;;;4949180;28;20073;-69
2022/03/10 04:29:35;;;;;;;13.60;8.00;;;6.70;74.20;;;;;;4938226;28;20478;-69
2022/03/10 04:32:01;;;;;;;16.20;8.80;;;6.70;74.00;;;;;;4940688;28;20542;-69
2022/03/10 04:34:27;;;;;;;14.95;7.70;;;6.80;74.20;;;;;;4935794;28;20035;-69
2022/03/10 04:36:52;;;;;;;17.88;8.23;;;6.70;74.20;;;;;;4949620;28;20035;-69
2022/03/10 04:39:18;;;;;;;15.80;8.82;;;6.80;74.20;;;;;;4950568;28;20042;-69
2022/03/10 04:41:43;;;;;;;19.92;7.82;;;6.70;74.00;;;;;;4950068;28;20031;-69
2022/03/10 04:44:10;;;;;;;15.77;7.88;;;6.70;74.10;;;;;;4937678;28;20039;-69
2022/03/10 04:46:36;;;;;;;14.07;7.75;;;6.60;74.20;;;;;;4950662;28;20486;-69
2022/03/10 04:49:02;;;;;;;13.07;7.80;;;6.60;74.20;;;;;;4948750;28;20511;-69
2022/03/10 04:51:28;;;;;;;17.67;9.38;;;6.60;74.20;;;;;;4949553;28;20038;-69
2022/03/10 04:53:54;;;;;;;14.00;8.60;;;6.60;74.10;;;;;;4949210;28;20549;-69
2022/03/10 04:56:20;;;;;;;16.25;8.65;;;6.60;74.10;;;;;;4949853;29;20036;-69
2022/03/10 04:58:46;;;;;;;17.73;8.25;;;6.50;73.90;;;;;;4949955;28;20513;-69
2022/03/10 05:01:12;;;;;;;19.77;7.78;;;6.50;73.90;;;;;;4950305;28;20043;-69
2022/03/10 05:03:38;;;;;;;17.35;8.50;;;6.50;73.90;;;;;;4948846;28;20080;-69
2022/03/10 05:06:04;;;;;;;15.85;8.82;;;6.50;73.80;;;;;;4949896;28;20148;-69
2022/03/10 05:08:29;;;;;;;14.32;8.32;;;6.40;73.70;;;;;;4942992;28;20081;-69
2022/03/10 05:10:55;;;;;;;17.33;8.85;;;6.40;73.90;;;;;;4949513;28;20043;-69
2022/03/10 05:13:21;;;;;;;18.15;8.07;;;6.40;74.00;;;;;;4950144;28;20039;-69
2022/03/10 05:15:47;;;;;;;15.52;8.93;;;6.40;74.10;;;;;;4949501;28;20027;-69
2022/03/10 05:18:13;;;;;;;16.70;8.40;;;6.40;74.20;;;;;;4937232;28;20089;-69
2022/03/10 05:20:38;;;;;;;17.33;9.30;;;6.40;74.30;;;;;;4951754;28;20045;-69
2022/03/10 05:23:06;;;;;;;16.35;8.57;;;6.40;74.20;;;;;;4950077;28;21352;-69
2022/03/10 05:25:36;;;;;;;15.82;8.55;;;6.40;74.20;;;;;;4943764;28;20046;-69
2022/03/10 05:28:04;;;;;;;17.27;9.05;;;6.30;74.30;;;;;;4954229;28;20047;-69
2022/03/10 05:30:30;;;;;;;15.75;7.75;;;6.30;74.30;;;;;;4952578;28;20065;-69
2022/03/10 05:32:56;;;;;;;21.88;7.90;;;6.30;74.40;;;;;;4953104;28;20476;-69
2022/03/10 05:35:22;;;;;;;18.83;7.85;;;6.30;74.40;;;;;;4953400;28;20165;-69
2022/03/10 05:37:48;;;;;;;13.93;6.95;;;6.30;74.60;;;;;;4951632;28;20024;-69
2022/03/10 05:40:18;;;;;;;16.30;7.93;;;6.30;74.70;;;;;;4952488;28;20050;-69
2022/03/10 05:42:44;;;;;;;16.52;8.85;;;6.20;74.70;;;;;;4951438;28;20118;-69
2022/03/10 05:45:11;;;;;;;17.63;8.52;;;6.20;74.60;;;;;;4952439;28;20269;-69
2022/03/10 05:47:38;;;;;;;13.25;7.43;;;6.20;74.60;;;;;;4953000;28;20491;-69
2022/03/10 05:50:04;;;;;;;23.17;7.72;;;6.30;74.90;;;;;;4952679;28;20717;-69
2022/03/10 05:52:30;;;;;;;15.07;7.28;;;6.20;75.20;;;;;;4952484;28;20054;-69
2022/03/10 05:54:56;;;;;;;21.27;9.32;;;6.20;75.30;;;;;;4952801;28;20035;-69
2022/03/10 05:57:22;;;;;;;17.20;8.07;;;6.20;75.20;;;;;;4952966;28;20051;-69
2022/03/10 05:59:47;;;;;;;15.57;8.20;;;6.20;75.20;;;;;;4952272;28;20447;-69
2022/03/10 06:02:16;;;;;;;21.92;9.15;;;6.10;75.00;;;;;;4952644;28;20027;-71
2022/03/10 06:04:42;;;;;;;15.45;8.00;;;6.20;75.00;;;;;;4959349;28;20486;-76
2022/03/10 06:07:08;;;;;;;14.40;6.95;;;6.20;75.20;;;;;;4987086;28;20045;-72
2022/03/10 06:09:34;;;;;;;15.65;8.82;;;6.10;75.90;;;;;;4991022;28;20108;-69
2022/03/10 06:11:59;;;;;;;20.98;7.57;;;6.10;75.40;;;;;;5005162;28;20469;-70
2022/03/10 06:14:25;;;;;;;17.55;7.90;;;6.10;75.50;;;;;;4993648;28;20486;-69
2022/03/10 06:16:51;;;;;;;15.93;7.70;;;6.10;75.80;;;;;;5000635;28;20031;-75
2022/03/10 06:19:17;;;;;;;19.00;9.10;;;6.10;75.90;;;;;;4973216;28;20445;-69
2022/03/10 06:21:43;;;;;;;18.80;8.85;;;6.00;75.90;;;;;;4976093;28;20027;-68
2022/03/10 06:24:10;;;;;;;16.80;8.15;;;6.10;75.90;;;;;;4981402;28;20040;-67
2022/03/10 06:26:36;;;;;;;16.15;8.10;;;6.10;76.00;;;;;;5013648;28;20070;-68
2022/03/10 06:29:05;;;;;;;18.38;7.13;;;6.10;76.10;;;;;;5014090;28;20517;-68
2022/03/10 06:31:31;;;;;;;17.73;8.07;;;6.10;76.60;;;;;;4980793;28;20039;-68
2022/03/10 06:33:57;;;;;;;16.45;8.05;;;6.10;76.60;;;;;;4988924;28;20029;-69
2022/03/10 06:36:23;;;;;;;15.00;7.75;;;6.10;76.80;;;;;;4990796;28;20041;-67
2022/03/10 06:38:49;;;;;;;16.63;7.05;;;6.10;76.90;;;;;;5020996;28;20033;-68
2022/03/10 06:41:14;;;;;;;21.30;9.00;;;6.10;77.20;;;;;;4979724;28;20037;-68
2022/03/10 06:43:40;;;;;;;24.10;8.63;;;6.00;77.60;;;;;;5006075;28;20029;-67
2022/03/10 06:46:06;;;;;;;16.40;8.85;;;6.00;77.70;;;;;;5030564;28;20029;-70
2022/03/10 06:48:32;;;;;;;17.40;9.23;;;6.10;77.80;;;;;;4963900;28;20030;-67
2022/03/10 06:51:01;;;;;;;13.98;7.40;;;6.00;77.60;;;;;;4976551;28;20528;-68
2022/03/10 06:53:26;;;;;;;13.85;7.07;;;6.00;77.80;;;;;;4983439;28;20535;-68
2022/03/10 06:55:52;;;;;;;23.73;10.05;;;6.00;77.90;;;;;;4987438;28;20031;-72
2022/03/10 06:58:18;;;;;;;14.05;7.43;;;6.00;77.90;;;;;;4974577;28;20449;-67
2022/03/10 07:00:44;;;;;;;15.65;8.02;;;5.90;77.90;;;;;;5002829;28;20075;-69
2022/03/10 07:03:10;;;;;;;12.52;6.63;;;5.90;78.00;;;;;;4968644;28;20027;-68
2022/03/10 07:05:36;;;;;;;14.80;8.15;;;6.00;78.20;;;;;;4946025;28;20399;-68
2022/03/10 07:08:02;;;;;;;14.98;7.60;;;5.90;78.40;;;;;;4982059;28;20128;-68
2022/03/10 07:10:27;;;;;;;15.75;6.60;;;6.00;79.10;;;;;;4976692;28;20033;-68
2022/03/10 07:12:54;;;;;;;13.75;7.57;;;5.90;79.40;;;;;;5008233;28;20040;-68
2022/03/10 07:15:20;;;;;;;16.25;8.23;;;6.00;79.90;;;;;;5019517;28;20029;-72
2022/03/10 07:17:46;;;;;;;16.35;8.10;;;6.00;80.10;;;;;;4971144;28;20051;-73
2022/03/10 07:20:14;;;;;;;17.75;7.72;;;6.00;80.60;;;;;;4937703;28;20031;-68
2022/03/10 07:22:39;;;;;;;6.38;3.20;;;6.00;81.00;;;;;;4949523;28;20174;-70
2022/03/10 07:25:07;;;;;;;18.83;9.35;;;6.00;81.50;;;;;;4950485;28;20122;-68
2022/03/10 07:27:32;;;;;;;13.93;6.80;;;6.10;81.80;;;;;;4950311;28;20047;-68
2022/03/10 07:29:58;;;;;;;13.43;6.93;;;6.10;82.20;;;;;;4950452;28;20101;-69
2022/03/10 07:32:28;;;;;;;15.98;8.00;;;6.10;82.80;;;;;;4944242;28;20386;-69
2022/03/10 07:35:01;;;;;;;9.88;5.30;;;6.10;83.20;;;;;;4932217;29;20417;-69
2022/03/10 07:37:27;;;;;;;15.13;7.68;;;6.10;83.40;;;;;;4938846;28;20039;-69
2022/03/10 07:39:53;;;;;;;17.33;8.60;;;6.20;83.60;;;;;;4940263;28;20039;-69
2022/03/10 07:42:18;;;;;;;12.80;7.28;;;6.20;83.80;;;;;;4950272;28;20035;-69
2022/03/10 07:44:44;;;;;;;18.50;8.98;;;6.20;83.40;;;;;;4950889;28;20035;-69
2022/03/10 07:47:10;;;;;;;19.42;8.05;;;6.20;83.30;;;;;;4938734;28;20047;-69
2022/03/10 07:49:35;;;;;;;22.90;9.25;;;6.20;83.10;;;;;;4950537;28;20141;-69
2022/03/10 07:52:02;;;;;;;16.65;8.00;;;6.30;82.90;;;;;;4936928;28;20186;-69
2022/03/10 07:54:28;;;;;;;23.63;8.32;;;6.30;82.90;;;;;;4952288;28;20489;-69
2022/03/10 07:56:53;;;;;;;18.30;8.63;;;6.30;82.40;;;;;;4950822;28;20117;-69
2022/03/10 07:59:19;;;;;;;18.23;10.38;;;6.40;82.10;;;;;;4950254;28;20039;-69
2022/03/10 08:01:45;;;;;;;18.40;9.15;;;6.30;81.70;;;;;;4955672;28;20035;-69
2022/03/10 08:04:10;;;;;;;18.13;8.93;;;6.40;81.70;;;;;;4966233;28;20032;-68
2022/03/10 08:06:36;;;;;;;24.50;8.30;;;6.40;81.30;;;;;;4943437;28;20527;-71
2022/03/10 08:09:04;;;;;;;17.33;9.35;;;6.40;81.30;;;;;;4948285;28;20027;-69
2022/03/10 08:11:30;;;;;;;20.95;7.05;;;6.40;81.00;;;;;;4938803;28;20043;-69
2022/03/10 08:13:56;;;;;;;16.45;9.00;;;6.40;81.00;;;;;;4997691;28;20026;-69
2022/03/10 08:16:22;;;;;;;25.13;11.07;;;6.50;81.00;;;;;;4974488;28;20042;-68
2022/03/10 08:18:49;;;;;;;16.48;8.70;;;6.50;80.70;;;;;;5018490;28;20112;-69
2022/03/10 08:21:15;;;;;;;19.27;9.70;;;6.50;80.90;;;;;;4980469;28;20029;-69
2022/03/10 08:23:41;;;;;;;22.75;9.45;;;6.60;80.70;;;;;;4988614;28;20028;-69
2022/03/10 08:26:10;;;;;;;20.15;10.02;;;6.60;80.70;;;;;;5002989;28;20052;-68
2022/03/10 08:28:36;;;;;;;26.15;11.02;;;6.70;80.60;;;;;;4959094;28;20040;-69
2022/03/10 08:31:04;;;;;;;15.52;8.15;;;6.60;80.50;;;;;;4931618;29;20052;-68
2022/03/10 08:33:33;;;;;;;18.15;9.35;;;6.70;80.50;;;;;;4943496;28;20375;-68
2022/03/10 08:36:07;;;;;;;21.10;9.55;;;6.70;80.40;;;;;;4941867;28;20035;-68
2022/03/10 08:38:33;;;;;;;30.25;10.50;;;6.80;80.30;;;;;;4981281;28;20093;-69
2022/03/10 08:40:59;;;;;;;18.42;7.97;;;6.80;80.40;;;;;;5013527;28;20021;-69
2022/03/10 08:43:28;;;;;;;21.20;9.93;;;6.90;80.40;;;;;;4988624;28;20033;-69
2022/03/10 08:45:55;;;;;;;22.52;9.98;;;6.90;80.40;;;;;;4997738;28;20398;-69
2022/03/10 08:48:21;;;;;;;26.33;10.75;;;7.00;80.20;;;;;;4941445;28;20027;-69
2022/03/10 08:50:47;;;;;;;23.33;10.45;;;7.00;80.10;;;;;;4950246;28;20039;-69
2022/03/10 08:53:12;;;;;;;17.30;9.32;;;7.10;80.00;;;;;;5005406;28;20025;-69
2022/03/10 08:55:41;;;;;;;17.90;8.90;;;7.10;79.80;;;;;;4983970;28;20064;-69
2022/03/10 08:58:06;;;;;;;22.33;10.02;;;7.20;79.90;;;;;;4990066;28;20059;-68
2022/03/10 09:00:33;;;;;;;14.43;7.70;;;7.20;79.90;;;;;;4932322;28;20035;-69
2022/03/10 09:02:59;;;;;;;17.08;9.75;;;7.30;79.90;;;;;;4949379;28;20034;-69
2022/03/10 09:05:25;;;;;;;23.17;10.75;;;7.30;79.80;;;;;;4937365;28;20043;-68
2022/03/10 09:07:51;;;;;;;21.10;10.63;;;7.40;79.90;;;;;;5003728;28;20122;-69
2022/03/10 09:10:17;;;;;;;18.90;9.75;;;7.40;79.80;;;;;;4939753;28;20074;-69
2022/03/10 09:12:43;;;;;;;25.58;10.75;;;7.40;79.80;;;;;;4945896;28;20031;-69
2022/03/10 09:15:09;;;;;;;22.58;12.07;;;7.50;80.00;;;;;;4939474;28;20436;-69
2022/03/10 09:17:35;;;;;;;18.67;8.80;;;7.50;79.90;;;;;;4935675;28;20047;-69
2022/03/10 09:20:03;;;;;;;19.05;10.23;;;7.60;79.80;;;;;;4939460;28;20364;-69
2022/03/10 09:22:29;;;;;;;19.83;8.98;;;7.60;79.70;;;;;;4946278;28;20039;-68
2022/03/10 09:24:55;;;;;;;16.73;7.30;;;7.70;80.60;;;;;;4949824;28;20039;-68
2022/03/10 09:27:20;;;;;;;14.27;5.93;;;7.70;81.00;;;;;;4937085;28;20043;-68
2022/03/10 09:29:46;;;;;;;19.75;10.07;;;7.80;80.60;;;;;;4949241;28;20047;-69
2022/03/10 09:32:12;;;;;;;21.65;8.70;;;7.80;81.30;;;;;;4945801;28;20035;-68
2022/03/10 09:34:37;;;;;;;20.00;10.18;;;7.90;80.90;;;;;;4941278;28;20076;-68
2022/03/10 09:37:04;;;;;;;19.10;8.77;;;8.00;80.50;;;;;;4936559;28;20111;-68
2022/03/10 09:39:29;;;;;;;16.90;9.27;;;8.10;81.00;;;;;;4939100;28;20036;-68
2022/03/10 09:41:56;;;;;;;16.88;7.53;;;8.10;80.60;;;;;;4948246;28;20517;-69
2022/03/10 09:44:22;;;;;;;19.95;9.77;;;8.20;81.20;;;;;;4939713;28;20028;-68
2022/03/10 09:46:52;;;;;;;18.50;9.02;;;8.30;80.50;;;;;;4930578;29;20044;-68
2022/03/10 09:49:21;;;;;;;15.88;8.18;;;8.30;80.00;;;;;;4940220;29;20066;-70
2022/03/10 09:51:49;;;;;;;16.30;8.25;;;8.40;79.90;;;;;;4946474;28;20462;-69
2022/03/10 09:54:16;;;;;;;16.73;8.43;;;8.40;79.20;;;;;;4946914;28;20674;-68
2022/03/10 09:56:43;;;;;;;12.07;6.93;;;8.50;79.10;;;;;;4943079;28;20387;-69
2022/03/10 09:59:10;;;;;;;16.58;8.93;;;8.60;79.60;;;;;;4941143;28;20028;-68
2022/03/10 10:01:36;;;;;;;17.17;8.68;;;8.70;79.70;;;;;;4935908;28;20398;-69
2022/03/10 10:04:02;;;;;;;20.23;8.20;;;8.70;79.00;;;;;;4948811;28;20845;-68
2022/03/10 10:06:27;;;;;;;16.48;9.30;;;8.80;78.30;;;;;;4950598;28;20130;-68
2022/03/10 10:08:57;;;;;;;24.20;9.18;;;8.80;77.80;;;;;;4951580;28;20034;-68
2022/03/10 10:11:35;;;;;;;22.65;8.25;;;8.90;77.50;;;;;;4983736;28;20033;-68
2022/03/10 10:14:01;;;;;;;28.73;8.02;;;9.00;78.70;;;;;;4972904;28;20058;-68
2022/03/10 10:16:27;;;;;;;16.95;6.35;;;9.00;78.70;;;;;;4968652;28;20386;-68
2022/03/10 10:18:56;;;;;;;16.30;6.38;;;9.10;79.50;;;;;;4975954;28;20031;-69
2022/03/10 10:21:23;;;;;;;16.75;8.88;;;9.10;79.10;;;;;;4961907;28;20145;-68
2022/03/10 10:23:51;;;;;;;17.20;8.02;;;9.20;78.60;;;;;;4961752;28;20035;-69
2022/03/10 10:26:26;;;;;;;17.20;8.60;;;9.30;78.60;;;;;;4961781;28;20049;-69
2022/03/10 10:28:52;;;;;;;30.65;8.80;;;9.30;78.10;;;;;;5007256;28;20026;-69
2022/03/10 10:31:27;;;;;;;20.30;8.63;;;9.40;77.60;;;;;;4963974;28;20022;-69
2022/03/10 10:34:06;;;;;;;16.15;8.13;;;9.50;77.20;;;;;;4997298;28;20036;-68
2022/03/10 10:36:33;;;;;;;19.38;9.93;;;9.50;76.80;;;;;;4955769;28;20557;-68
2022/03/10 10:39:17;;;;;;;16.58;8.55;;;9.60;76.50;;;;;;4950707;28;20035;-69
2022/03/10 10:41:45;;;;;;;;;;;9.60;76.00;;;;;;4978977;28;20032;-68
2022/03/10 10:44:17;;;;;;;26.52;11.68;;;9.70;76.60;;;;;;5028765;28;20275;-68
2022/03/10 10:46:48;;;;;;;10.73;5.25;;;9.70;76.30;;;;;;4981436;28;20122;-68
2022/03/10 10:49:16;;;;;;;17.70;8.75;;;9.80;76.90;;;;;;4935607;28;20032;-67
2022/03/10 10:51:44;;;;;;;15.75;7.68;;;9.80;76.30;;;;;;4939124;28;20046;-68
2022/03/10 10:54:25;;;;;;;20.00;8.40;;;9.90;77.20;;;;;;4950834;28;20395;-68
2022/03/10 10:56:53;;;;;;;17.77;8.82;;;9.90;77.60;;;;;;4932966;28;20044;-67
2022/03/10 10:59:37;;;;;;;17.77;9.80;;;10.00;77.10;;;;;;4945561;28;20047;-68
2022/03/10 11:02:17;;;;;;;14.77;7.80;;;10.10;76.50;;;;;;4944040;29;20043;-68
2022/03/10 11:04:51;;;;;;;14.90;7.93;;;10.10;77.20;;;;;;4951265;28;20122;-68
2022/03/10 11:07:17;;;;;;;19.77;8.68;;;10.20;76.40;;;;;;4951046;28;20134;-68
2022/03/10 11:09:45;;;;;;;21.00;9.13;;;10.30;76.20;;;;;;4951829;28;20032;-67
2022/03/10 11:12:13;;;;;;;15.43;8.73;;;10.30;75.80;;;;;;4950785;28;20031;-67
2022/03/10 11:14:40;;;;;;;17.88;9.05;;;10.40;75.10;;;;;;4941094;28;20047;-68
2022/03/10 11:17:07;;;;;;;21.48;8.82;;;10.40;74.60;;;;;;4957569;28;20093;-68
2022/03/10 11:19:35;;;;;;;13.82;7.05;;;10.50;74.70;;;;;;4943116;28;20043;-68
2022/03/10 11:22:21;;;;;;;19.58;8.98;;;10.60;74.70;;;;;;4994386;28;20058;-68
2022/03/10 11:25:12;;;;;;;18.65;8.45;;;10.70;75.20;;;;;;4951586;28;20027;-68
2022/03/10 11:27:58;;;;;;;19.23;8.25;;;10.70;74.30;;;;;;4942337;28;20047;-71
2022/03/10 11:30:30;;;;;;;14.40;6.20;;;10.80;74.10;;;;;;4953574;28;20066;-69
2022/03/10 11:33:02;;;;;;;19.85;7.30;;;10.80;76.90;;;;;;4938805;28;20044;-68
2022/03/10 11:35:36;;;;;;;15.38;7.55;;;10.90;77.00;;;;;;4950537;28;20822;-69
2022/03/10 11:38:02;;;;;;;15.85;7.65;;;10.90;76.10;;;;;;4955416;28;20415;-73
2022/03/10 11:40:47;;;;;;;32.88;8.57;;;11.00;76.00;;;;;;4936048;28;20038;-72
2022/03/10 11:43:34;;;;;;;18.75;8.38;;;11.10;74.20;;;;;;4946153;28;20035;-68
2022/03/10 11:46:17;;;;;;;17.08;7.75;;;11.10;73.50;;;;;;4992997;28;20044;-68
2022/03/10 11:48:44;;;;;;;27.60;8.80;;;11.30;74.10;;;;;;4941770;28;20111;-68
2022/03/10 11:51:12;;;;;;;29.08;10.65;;;11.30;74.40;;;;;;4947502;28;20345;-68
2022/03/10 11:53:58;;;;;;;18.00;8.80;;;11.40;73.90;;;;;;4950365;28;20039;-68
2022/03/10 11:56:43;;;;;;;16.05;7.20;;;11.50;73.60;;;;;;4937512;28;20035;-68
2022/03/10 11:59:30;;;;;;;15.00;6.78;;;11.60;73.90;;;;;;4950869;28;20501;-68
2022/03/10 12:01:56;;;;;;;19.73;8.35;;;11.60;72.60;;;;;;4951045;28;20043;-68
2022/03/10 12:04:28;;;;;;;12.75;7.10;;;11.70;73.10;;;;;;4950455;28;20054;-68
2022/03/10 12:06:56;;;;;;;17.65;8.77;;;11.70;73.60;;;;;;4944368;28;20398;-68
2022/03/10 12:10:06;;;;;;;15.93;9.10;;;11.80;73.10;;;;;;4944884;28;20097;-68
2022/03/10 12:12:40;;;;;;;16.83;9.15;;;11.90;72.30;;;;;;4964808;28;20055;-68
2022/03/10 12:15:24;;;;;;;17.42;5.28;;;11.90;72.40;;;;;;4950451;28;20042;-68
2022/03/10 12:17:53;;;;;;;17.27;9.77;;;12.00;72.40;;;;;;4950173;28;20089;-69
2022/03/10 12:20:39;;;;;;;22.75;9.73;;;12.00;72.10;;;;;;4950641;28;20052;-68
2022/03/10 12:23:12;;;;;;;14.10;7.95;;;12.10;70.70;;;;;;4939367;28;20066;-68
2022/03/10 12:25:53;;;;;;;14.20;7.07;;;12.20;72.80;;;;;;4949292;28;20343;-68
2022/03/10 12:28:30;;;;;;;16.10;7.07;;;12.30;72.10;;;;;;4945926;28;20040;-69
2022/03/10 12:31:19;;;;;;;19.20;6.97;;;12.30;73.60;;;;;;4943582;28;20532;-68
2022/03/10 12:33:52;;;;;;;17.92;8.57;;;12.40;74.00;;;;;;4940233;28;20109;-69
2022/03/10 12:36:42;;;;;;;15.18;7.10;;;12.50;74.90;;;;;;4960861;28;20066;-71
2022/03/10 12:39:09;;;;;;;14.80;5.18;;;12.50;73.90;;;;;;4947124;28;20034;-71
2022/03/10 12:41:38;;;;;;;17.15;4.32;;;12.60;76.50;;;;;;4940011;28;20027;-70
2022/03/10 12:44:06;;;;;;;20.98;9.45;;;12.60;78.20;;;;;;4939126;28;20039;-74
2022/03/10 12:46:36;;;;;;;18.88;9.32;;;12.70;75.90;;;;;;4964994;28;20155;-69
2022/03/10 12:49:08;;;;;;;19.40;9.57;;;12.70;73.60;;;;;;4985128;28;20089;-68
2022/03/10 12:51:38;;;;;;;21.17;9.32;;;12.80;71.70;;;;;;5019357;28;20036;-68
2022/03/10 12:54:07;;;;;;;19.42;7.80;;;12.90;72.00;;;;;;4940209;28;20028;-67
2022/03/10 12:56:51;;;;;;;22.50;9.02;;;12.90;72.40;;;;;;4948699;28;20513;-67
2022/03/10 12:59:29;;;;;;;14.23;5.63;;;13.00;73.70;;;;;;4949784;28;20039;-70